Time;durP1;ratioP1;P1;durP2;ratioP2;P2;SDS_P1;SDS_P2;PMS_P1;PMS_P2;Temp;Humidity;BMP_temperature;BMP_pressure;BME280_temperature;BME280_humidity;BME280_pressure;Samples;Min_cycle;Max_cycle;Signal;HPM_P1;HPM_P2
2022/06/26 00:02:02;;;;;;;1.90;0.67;;;33.40;29.40;;;;;;5082033;28;20462;-64
2022/06/26 00:04:33;;;;;;;0.60;0.60;;;33.40;31.10;;;;;;5082865;28;20497;-67
2022/06/26 00:07:04;;;;;;;0.70;0.47;;;33.40;29.50;;;;;;5081557;28;20462;-64
2022/06/26 00:09:35;;;;;;;0.87;0.67;;;33.40;31.10;;;;;;5081410;28;20470;-66
2022/06/26 00:12:06;;;;;;;0.40;0.40;;;33.30;30.90;;;;;;5082768;28;20462;-66
2022/06/26 00:14:37;;;;;;;0.93;0.40;;;33.30;29.90;;;;;;5076789;28;20471;-66
2022/06/26 00:17:09;;;;;;;0.40;0.30;;;33.30;31.40;;;;;;5080963;28;20577;-66
2022/06/26 00:19:40;;;;;;;0.70;0.40;;;33.30;30.80;;;;;;5081870;28;20485;-68
2022/06/26 00:22:11;;;;;;;0.60;0.50;;;33.20;29.30;;;;;;5081907;28;20563;-68
2022/06/26 00:24:43;;;;;;;0.40;0.40;;;33.20;30.40;;;;;;5081544;28;20465;-68
2022/06/26 00:27:13;;;;;;;0.40;0.40;;;33.20;31.10;;;;;;5081055;28;20466;-68
2022/06/26 00:29:44;;;;;;;0.43;0.43;;;33.20;32.80;;;;;;5081911;28;20470;-67
2022/06/26 00:32:17;;;;;;;0.50;0.40;;;33.20;30.20;;;;;;5069751;28;20980;-67
2022/06/26 00:34:47;;;;;;;0.63;0.63;;;33.20;32.40;;;;;;5082041;28;20470;-68
2022/06/26 00:37:18;;;;;;;1.33;0.40;;;33.30;31.90;;;;;;5082125;28;20454;-68
2022/06/26 00:39:49;;;;;;;0.40;0.40;;;33.40;33.60;;;;;;5081963;28;20453;-67
2022/06/26 00:42:20;;;;;;;0.50;0.30;;;33.50;32.80;;;;;;5082227;28;20462;-68
2022/06/26 00:44:55;;;;;;;1.00;0.90;;;33.50;29.50;;;;;;5080769;28;20492;-67
2022/06/26 00:47:28;;;;;;;0.80;0.50;;;33.50;32.00;;;;;;5080732;28;20462;-67
2022/06/26 00:49:58;;;;;;;0.50;0.40;;;33.50;31.60;;;;;;5080146;28;20471;-67
2022/06/26 00:52:30;;;;;;;0.50;0.47;;;33.50;31.20;;;;;;5080787;28;20451;-69
2022/06/26 00:55:01;;;;;;;0.53;0.43;;;33.50;30.40;;;;;;5081217;28;20461;-66
2022/06/26 00:57:33;;;;;;;0.53;0.40;;;33.40;31.20;;;;;;5081247;28;20459;-68
2022/06/26 01:00:06;;;;;;;0.97;0.40;;;33.40;30.30;;;;;;5081951;28;20481;-67
2022/06/26 01:02:38;;;;;;;1.13;0.40;;;33.40;31.50;;;;;;5081899;28;20476;-67
2022/06/26 01:05:10;;;;;;;0.50;0.50;;;33.40;31.80;;;;;;5080487;28;20534;-66
2022/06/26 01:07:42;;;;;;;0.40;0.30;;;33.40;31.20;;;;;;5079149;28;20466;-64
2022/06/26 01:10:15;;;;;;;0.40;0.40;;;33.50;30.60;;;;;;5081665;28;20462;-66
2022/06/26 01:12:46;;;;;;;0.50;0.30;;;33.40;30.00;;;;;;5082383;28;20450;-66
2022/06/26 01:15:17;;;;;;;0.40;0.30;;;33.30;30.40;;;;;;5080415;28;20466;-66
2022/06/26 01:17:50;;;;;;;0.53;0.50;;;33.30;30.50;;;;;;5079334;28;20463;-66
2022/06/26 01:20:21;;;;;;;0.40;0.30;;;33.20;31.10;;;;;;5079053;28;20560;-66
2022/06/26 01:23:01;;;;;;;0.43;0.40;;;33.10;31.10;;;;;;5081764;28;20485;-65
2022/06/26 01:25:43;;;;;;;0.80;0.60;;;33.00;32.20;;;;;;5080548;28;20471;-66
2022/06/26 01:28:14;;;;;;;0.50;0.50;;;33.00;31.60;;;;;;5079631;28;20462;-66
2022/06/26 01:30:46;;;;;;;0.47;0.47;;;32.80;34.20;;;;;;5080126;28;20532;-66
2022/06/26 01:33:17;;;;;;;0.50;0.50;;;32.60;32.90;;;;;;5081374;28;20459;-66
2022/06/26 01:35:47;;;;;;;0.83;0.40;;;32.50;31.80;;;;;;5079296;28;20457;-66
2022/06/26 01:38:22;;;;;;;0.40;0.40;;;32.40;32.30;;;;;;5081556;28;21159;-66
2022/06/26 01:40:54;;;;;;;0.83;0.50;;;32.30;32.50;;;;;;5080599;28;20465;-66
2022/06/26 01:43:27;;;;;;;1.47;0.40;;;32.20;33.50;;;;;;5081132;28;20482;-65
2022/06/26 01:45:59;;;;;;;0.50;0.40;;;32.20;34.40;;;;;;5080120;28;20461;-65
2022/06/26 01:48:31;;;;;;;0.97;0.60;;;32.30;33.20;;;;;;5080564;28;20592;-66
2022/06/26 01:51:03;;;;;;;0.50;0.50;;;32.30;32.20;;;;;;5080960;28;20457;-66
2022/06/26 01:53:36;;;;;;;0.50;0.50;;;32.30;32.30;;;;;;5081611;28;20545;-66
2022/06/26 01:56:07;;;;;;;0.53;0.53;;;32.30;32.00;;;;;;5080833;28;20462;-66
2022/06/26 01:58:38;;;;;;;0.80;0.50;;;32.20;34.20;;;;;;5081191;28;20496;-66
2022/06/26 02:01:09;;;;;;;0.40;0.37;;;32.10;32.60;;;;;;5082481;28;20457;-67
2022/06/26 02:03:40;;;;;;;0.43;0.37;;;32.00;32.70;;;;;;5085445;28;20484;-66
2022/06/26 02:06:11;;;;;;;0.40;0.30;;;31.90;32.30;;;;;;5083917;28;20457;-63
2022/06/26 02:08:43;;;;;;;1.77;1.37;;;31.90;32.30;;;;;;5085833;28;20455;-66
2022/06/26 02:14:01;;;;;;;1.30;0.87;;;31.60;33.60;;;;;;5078556;28;20971;-64
2022/06/26 02:16:35;;;;;;;0.40;0.37;;;31.40;34.00;;;;;;5085038;28;20470;-65
2022/06/26 02:19:06;;;;;;;1.47;0.50;;;31.40;32.70;;;;;;5085455;28;20558;-64
2022/06/26 02:21:39;;;;;;;0.50;0.50;;;31.20;33.00;;;;;;5082590;28;20457;-65
2022/06/26 02:24:11;;;;;;;0.40;0.40;;;31.10;33.10;;;;;;5077558;28;20485;-67
2022/06/26 02:26:42;;;;;;;0.77;0.40;;;31.10;32.80;;;;;;5084039;28;20818;-65
2022/06/26 02:29:13;;;;;;;0.50;0.50;;;31.10;35.30;;;;;;5084503;28;20982;-65
2022/06/26 02:31:44;;;;;;;0.57;0.57;;;31.10;35.00;;;;;;5083035;28;20487;-65
2022/06/26 02:34:14;;;;;;;0.83;0.40;;;31.00;34.20;;;;;;5084831;28;20470;-65
2022/06/26 02:36:45;;;;;;;0.63;0.40;;;30.90;36.10;;;;;;5084379;28;20459;-66
2022/06/26 02:39:18;;;;;;;0.53;0.53;;;30.80;35.00;;;;;;5083559;28;21110;-64
2022/06/26 02:41:49;;;;;;;0.87;0.77;;;30.90;35.20;;;;;;5083444;28;20943;-65
2022/06/26 02:44:21;;;;;;;0.50;0.40;;;30.90;33.80;;;;;;5083600;28;20468;-65
2022/06/26 02:46:52;;;;;;;0.50;0.50;;;30.70;34.70;;;;;;5083181;28;20469;-66
2022/06/26 02:49:23;;;;;;;1.73;0.53;;;30.60;32.70;;;;;;5083770;28;20467;-66
2022/06/26 02:51:54;;;;;;;0.50;0.50;;;30.50;35.70;;;;;;5083185;28;20467;-67
2022/06/26 02:54:26;;;;;;;0.70;0.50;;;30.30;35.40;;;;;;5081178;28;20465;-66
2022/06/26 02:56:57;;;;;;;0.50;0.40;;;30.10;34.70;;;;;;5074044;28;20584;-66
2022/06/26 02:59:28;;;;;;;0.40;0.40;;;30.00;33.60;;;;;;5080353;28;20488;-66
2022/06/26 03:01:59;;;;;;;0.50;0.50;;;29.90;35.20;;;;;;5083616;28;20843;-66
2022/06/26 03:04:30;;;;;;;0.70;0.70;;;29.80;35.00;;;;;;5082225;28;20471;-65
2022/06/26 03:07:01;;;;;;;0.80;0.60;;;29.60;36.00;;;;;;5082820;28;20458;-65
2022/06/26 03:09:33;;;;;;;0.97;0.77;;;29.50;37.10;;;;;;5082071;28;20469;-65
2022/06/26 03:12:04;;;;;;;0.50;0.50;;;29.40;37.30;;;;;;5083054;28;20479;-65
2022/06/26 03:14:35;;;;;;;0.70;0.70;;;29.30;36.90;;;;;;5084469;28;20529;-65
2022/06/26 03:17:06;;;;;;;1.33;0.80;;;29.20;35.60;;;;;;5075040;28;20579;-64
2022/06/26 03:19:37;;;;;;;0.97;0.60;;;29.10;35.70;;;;;;5077080;28;20489;-64
2022/06/26 03:22:10;;;;;;;1.03;0.73;;;29.10;36.10;;;;;;5082410;28;20525;-66
2022/06/26 03:24:43;;;;;;;0.80;0.73;;;29.20;35.90;;;;;;5083300;28;20464;-66
2022/06/26 03:27:14;;;;;;;0.67;0.43;;;29.20;37.50;;;;;;5079809;28;20470;-66
2022/06/26 03:29:44;;;;;;;0.60;0.53;;;29.20;36.00;;;;;;5081718;28;20525;-66
2022/06/26 03:32:15;;;;;;;0.70;0.47;;;29.20;37.60;;;;;;5081469;28;20463;-66
2022/06/26 03:34:46;;;;;;;0.60;0.60;;;29.20;35.60;;;;;;5077361;28;20460;-67
2022/06/26 03:37:17;;;;;;;0.40;0.40;;;29.00;38.10;;;;;;5080021;28;20546;-66
2022/06/26 03:39:49;;;;;;;0.70;0.70;;;28.80;34.90;;;;;;5082597;28;20500;-65
2022/06/26 03:42:20;;;;;;;0.53;0.53;;;28.80;36.80;;;;;;5082757;28;20450;-65
2022/06/26 03:44:51;;;;;;;1.00;0.40;;;28.70;36.80;;;;;;5083234;28;20493;-65
2022/06/26 03:47:22;;;;;;;0.43;0.43;;;28.40;38.70;;;;;;5082987;28;20576;-65
2022/06/26 03:49:54;;;;;;;1.60;1.40;;;28.30;37.90;;;;;;5081948;28;20482;-65
2022/06/26 03:52:25;;;;;;;0.70;0.57;;;28.20;37.30;;;;;;5078063;28;20447;-65
2022/06/26 03:54:57;;;;;;;0.53;0.53;;;28.10;38.60;;;;;;5082898;28;20466;-64
2022/06/26 03:57:28;;;;;;;0.50;0.50;;;27.90;38.50;;;;;;5083184;28;20481;-64
2022/06/26 03:59:59;;;;;;;0.80;0.63;;;27.70;40.30;;;;;;5081409;28;20497;-65
2022/06/26 04:02:30;;;;;;;1.17;1.03;;;27.70;37.50;;;;;;5083338;28;20567;-64
2022/06/26 04:05:04;;;;;;;0.70;0.70;;;27.60;38.30;;;;;;5082410;28;20451;-65
2022/06/26 04:07:35;;;;;;;0.60;0.50;;;27.50;39.40;;;;;;5067885;28;20470;-65
2022/06/26 04:10:09;;;;;;;0.80;0.70;;;27.40;38.30;;;;;;5078693;28;20488;-64
2022/06/26 04:12:41;;;;;;;1.00;0.90;;;27.40;39.60;;;;;;5083647;28;20458;-65
2022/06/26 04:15:12;;;;;;;0.87;0.70;;;27.40;39.30;;;;;;5075333;28;20455;-64
2022/06/26 04:17:43;;;;;;;0.87;0.80;;;27.30;39.90;;;;;;5082584;28;20474;-64
2022/06/26 04:20:14;;;;;;;0.80;0.50;;;27.10;41.10;;;;;;5080683;28;20513;-64
2022/06/26 04:22:45;;;;;;;0.60;0.60;;;27.00;40.10;;;;;;5075891;28;20486;-65
2022/06/26 04:25:18;;;;;;;1.07;0.50;;;27.00;39.60;;;;;;5081492;28;20513;-66
2022/06/26 04:27:48;;;;;;;0.80;0.60;;;27.00;40.10;;;;;;5079496;28;20566;-64
2022/06/26 04:30:19;;;;;;;0.60;0.50;;;27.00;40.60;;;;;;5080069;28;20808;-64
2022/06/26 04:32:50;;;;;;;0.60;0.60;;;26.70;42.40;;;;;;5081777;28;20569;-65
2022/06/26 04:35:21;;;;;;;0.40;0.40;;;26.60;39.70;;;;;;5082442;28;20526;-64
2022/06/26 04:37:55;;;;;;;0.60;0.50;;;26.60;42.70;;;;;;5082334;28;20446;-64
2022/06/26 04:40:27;;;;;;;0.63;0.63;;;26.40;43.60;;;;;;5076480;28;20489;-64
2022/06/26 04:42:58;;;;;;;0.97;0.83;;;26.30;42.40;;;;;;5077543;28;20470;-65
2022/06/26 04:45:35;;;;;;;1.63;1.10;;;26.20;43.30;;;;;;5079782;28;20562;-65
2022/06/26 04:48:07;;;;;;;0.80;0.80;;;26.20;42.70;;;;;;5076785;28;21024;-65
2022/06/26 04:50:38;;;;;;;1.53;1.43;;;26.20;41.50;;;;;;5074482;28;20442;-66
2022/06/26 04:53:09;;;;;;;1.77;1.50;;;26.20;41.50;;;;;;5075638;28;20463;-65
2022/06/26 04:55:50;;;;;;;1.03;0.50;;;26.10;42.70;;;;;;5080692;28;20456;-64
2022/06/26 04:58:24;;;;;;;0.80;0.67;;;26.20;42.20;;;;;;5082549;28;20456;-65
2022/06/26 05:00:55;;;;;;;1.10;0.80;;;26.00;43.60;;;;;;5078263;28;20494;-65
2022/06/26 05:03:26;;;;;;;1.07;0.97;;;26.10;42.30;;;;;;5082221;28;20457;-65
2022/06/26 05:06:00;;;;;;;1.03;0.93;;;26.40;41.80;;;;;;5080231;28;20460;-64
2022/06/26 05:08:30;;;;;;;0.40;0.40;;;26.40;41.30;;;;;;5082363;28;20450;-66
2022/06/26 05:11:03;;;;;;;0.60;0.60;;;26.50;39.50;;;;;;5081273;28;20471;-65
2022/06/26 05:13:34;;;;;;;0.40;0.40;;;26.60;41.20;;;;;;5080939;28;20464;-66
2022/06/26 05:16:05;;;;;;;0.40;0.40;;;26.50;42.10;;;;;;5082460;28;20934;-67
2022/06/26 05:18:36;;;;;;;1.83;0.73;;;26.40;40.30;;;;;;5082033;28;20489;-66
2022/06/26 05:21:07;;;;;;;0.47;0.47;;;26.40;41.70;;;;;;5081022;28;20488;-67
2022/06/26 05:23:38;;;;;;;0.50;0.50;;;26.20;42.50;;;;;;5080103;28;20491;-66
2022/06/26 05:26:11;;;;;;;0.57;0.47;;;26.10;42.80;;;;;;5081506;28;20642;-66
2022/06/26 05:28:41;;;;;;;0.67;0.50;;;26.00;41.40;;;;;;5079144;28;20507;-66
2022/06/26 05:31:12;;;;;;;0.80;0.70;;;25.90;42.60;;;;;;5081235;28;20473;-66
2022/06/26 05:33:43;;;;;;;0.50;0.40;;;25.80;42.80;;;;;;5082431;28;20453;-66
2022/06/26 05:36:14;;;;;;;0.70;0.70;;;25.70;41.80;;;;;;5081788;28;20450;-66
2022/06/26 05:38:45;;;;;;;0.60;0.40;;;25.60;43.00;;;;;;5079484;28;20952;-66
2022/06/26 05:41:17;;;;;;;0.60;0.43;;;25.60;42.00;;;;;;5079782;28;20489;-66
2022/06/26 05:43:48;;;;;;;0.50;0.40;;;25.50;43.20;;;;;;5071324;28;20460;-66
2022/06/26 05:46:19;;;;;;;0.63;0.60;;;25.30;43.90;;;;;;5080835;28;20459;-66
2022/06/26 05:48:50;;;;;;;1.17;1.00;;;25.50;40.60;;;;;;5082450;28;20497;-67
2022/06/26 05:51:21;;;;;;;0.53;0.53;;;25.60;42.20;;;;;;5080074;28;20459;-66
2022/06/26 05:53:51;;;;;;;0.40;0.40;;;25.60;42.00;;;;;;5081762;28;20472;-66
2022/06/26 05:56:24;;;;;;;0.90;0.67;;;25.60;41.90;;;;;;5078475;28;20556;-67
2022/06/26 05:58:54;;;;;;;0.50;0.50;;;25.40;43.90;;;;;;5080490;28;20484;-67
2022/06/26 06:01:25;;;;;;;0.63;0.60;;;25.30;43.10;;;;;;5081133;28;20492;-66
2022/06/26 06:03:56;;;;;;;1.43;0.77;;;25.30;42.00;;;;;;5081778;28;20447;-67
2022/06/26 06:06:27;;;;;;;0.73;0.60;;;25.40;40.90;;;;;;5081124;28;20451;-66
2022/06/26 06:08:58;;;;;;;0.50;0.50;;;25.40;41.90;;;;;;5081570;28;20458;-66
2022/06/26 06:11:30;;;;;;;0.40;0.40;;;25.30;42.30;;;;;;5081144;28;20468;-66
2022/06/26 06:14:01;;;;;;;0.50;0.50;;;25.20;41.60;;;;;;5081779;28;20491;-66
2022/06/26 06:16:32;;;;;;;0.43;0.40;;;25.20;41.60;;;;;;5081917;28;20455;-66
2022/06/26 06:19:03;;;;;;;0.93;0.67;;;25.30;42.40;;;;;;5082069;28;20441;-66
2022/06/26 06:21:33;;;;;;;0.50;0.50;;;25.30;40.80;;;;;;5080924;28;20483;-66
2022/06/26 06:24:04;;;;;;;0.80;0.30;;;25.30;41.20;;;;;;5082251;28;20879;-67
2022/06/26 06:26:37;;;;;;;2.40;0.97;;;25.10;43.20;;;;;;5081166;28;20459;-66
2022/06/26 06:29:08;;;;;;;0.63;0.53;;;25.00;42.50;;;;;;5073294;28;20955;-66
2022/06/26 06:31:39;;;;;;;1.23;0.57;;;25.00;42.70;;;;;;5080094;28;20461;-66
2022/06/26 06:34:10;;;;;;;0.83;0.70;;;24.80;43.60;;;;;;5075832;28;20840;-67
2022/06/26 06:36:41;;;;;;;1.63;0.63;;;24.70;44.50;;;;;;5080930;28;20431;-66
2022/06/26 06:39:11;;;;;;;0.83;0.60;;;24.60;44.60;;;;;;5080887;28;20467;-67
2022/06/26 06:41:44;;;;;;;0.90;0.60;;;24.50;45.40;;;;;;5080655;28;20516;-67
2022/06/26 06:44:14;;;;;;;0.63;0.60;;;24.40;44.10;;;;;;5080845;28;20480;-67
2022/06/26 06:46:45;;;;;;;0.57;0.50;;;24.40;43.40;;;;;;5084341;28;20529;-66
2022/06/26 06:49:16;;;;;;;0.60;0.60;;;24.20;45.20;;;;;;5083393;28;20489;-66
2022/06/26 06:51:47;;;;;;;0.63;0.50;;;24.10;45.50;;;;;;5083500;28;20828;-66
2022/06/26 06:54:18;;;;;;;0.70;0.57;;;24.30;41.40;;;;;;5084196;28;20470;-66
2022/06/26 06:56:50;;;;;;;1.07;0.70;;;24.50;43.50;;;;;;5082663;28;20490;-67
2022/06/26 06:59:21;;;;;;;0.70;0.70;;;24.40;43.10;;;;;;5071033;28;20521;-67
2022/06/26 07:01:52;;;;;;;0.50;0.50;;;24.40;43.90;;;;;;5083487;28;20499;-67
2022/06/26 07:04:23;;;;;;;0.53;0.53;;;24.30;44.90;;;;;;5084539;28;20824;-67
2022/06/26 07:07:00;;;;;;;0.60;0.60;;;24.10;45.60;;;;;;5080875;28;20474;-66
2022/06/26 07:09:30;;;;;;;0.40;0.40;;;23.90;46.20;;;;;;5083916;28;20553;-66
2022/06/26 07:12:03;;;;;;;0.50;0.50;;;23.70;45.90;;;;;;5083347;28;20463;-66
2022/06/26 07:14:34;;;;;;;0.70;0.70;;;23.50;46.10;;;;;;5082986;28;20460;-66
2022/06/26 07:17:05;;;;;;;0.70;0.70;;;23.40;49.10;;;;;;5083856;28;20554;-67
2022/06/26 07:19:44;;;;;;;1.20;0.60;;;23.30;46.60;;;;;;5082905;28;20451;-66
2022/06/26 07:22:15;;;;;;;0.60;0.60;;;23.20;47.70;;;;;;5082112;28;20478;-66
2022/06/26 07:24:46;;;;;;;0.87;0.87;;;23.10;46.70;;;;;;5082909;28;20472;-66
2022/06/26 07:27:18;;;;;;;0.40;0.40;;;23.00;47.10;;;;;;5083547;28;20809;-66
2022/06/26 07:29:49;;;;;;;0.70;0.70;;;22.90;48.60;;;;;;5083638;28;20473;-67
2022/06/26 07:32:20;;;;;;;0.90;0.90;;;22.80;49.10;;;;;;5083826;28;20483;-66
2022/06/26 07:34:50;;;;;;;1.30;1.20;;;22.70;50.90;;;;;;5083587;28;20570;-66
2022/06/26 07:37:21;;;;;;;0.80;0.80;;;22.60;49.50;;;;;;5080742;28;20463;-66
2022/06/26 07:39:52;;;;;;;0.93;0.80;;;22.50;52.10;;;;;;5082304;28;20582;-66
2022/06/26 07:42:24;;;;;;;1.10;1.00;;;22.30;52.60;;;;;;5082755;28;20463;-66
2022/06/26 07:44:55;;;;;;;1.07;0.97;;;22.20;53.70;;;;;;5081834;28;20459;-66
2022/06/26 07:47:26;;;;;;;1.30;1.20;;;22.10;54.90;;;;;;5083176;28;20961;-67
2022/06/26 07:49:57;;;;;;;1.23;1.03;;;21.90;54.60;;;;;;5082423;28;20485;-66
2022/06/26 07:52:27;;;;;;;1.07;0.93;;;21.80;55.00;;;;;;5082746;28;20497;-66
2022/06/26 07:54:59;;;;;;;1.47;1.27;;;21.70;55.50;;;;;;5081506;28;20459;-66
2022/06/26 07:57:32;;;;;;;1.33;1.10;;;21.60;58.00;;;;;;5070484;28;20971;-66
2022/06/26 08:00:04;;;;;;;1.50;1.10;;;21.40;57.00;;;;;;5082479;28;20462;-67
2022/06/26 08:02:35;;;;;;;2.40;1.77;;;21.30;57.20;;;;;;5081834;28;20463;-66
2022/06/26 08:05:06;;;;;;;2.50;1.07;;;21.30;60.20;;;;;;5082658;28;20444;-66
2022/06/26 08:07:37;;;;;;;1.60;1.10;;;21.10;60.80;;;;;;5082393;28;20463;-66
2022/06/26 08:10:09;;;;;;;1.47;1.37;;;21.10;61.00;;;;;;5072933;28;20461;-66
2022/06/26 08:12:42;;;;;;;1.53;1.43;;;21.00;63.10;;;;;;5080870;28;20495;-66
2022/06/26 08:15:13;;;;;;;1.30;1.20;;;20.90;63.10;;;;;;5080815;28;20434;-66
2022/06/26 08:17:44;;;;;;;1.40;1.30;;;20.80;64.90;;;;;;5082330;28;20459;-67
2022/06/26 08:20:15;;;;;;;1.53;1.43;;;20.70;67.60;;;;;;5081224;28;20438;-66
2022/06/26 08:22:45;;;;;;;1.40;1.30;;;20.70;66.10;;;;;;5081068;28;20482;-66
2022/06/26 08:25:16;;;;;;;1.43;1.17;;;20.50;66.20;;;;;;5081788;28;20463;-66
2022/06/26 08:27:49;;;;;;;1.13;1.03;;;20.40;66.80;;;;;;5081881;28;20478;-66
2022/06/26 08:30:20;;;;;;;1.70;1.23;;;20.40;69.20;;;;;;5082482;28;20535;-65
2022/06/26 08:32:51;;;;;;;4.60;1.50;;;20.30;70.40;;;;;;5081970;28;20495;-66
2022/06/26 08:35:22;;;;;;;1.40;1.30;;;20.20;70.70;;;;;;5081447;28;20463;-66
2022/06/26 08:37:53;;;;;;;1.40;1.30;;;20.20;69.90;;;;;;5082299;28;20531;-66
2022/06/26 08:40:24;;;;;;;1.40;1.30;;;20.10;73.40;;;;;;5080846;28;20463;-66
2022/06/26 08:43:05;;;;;;;1.53;1.13;;;20.00;73.20;;;;;;5074669;28;20899;-65
2022/06/26 08:45:37;;;;;;;1.07;1.00;;;19.90;75.50;;;;;;5080028;28;20442;-66
2022/06/26 08:48:10;;;;;;;1.50;1.40;;;19.80;76.70;;;;;;5081837;28;20456;-66
2022/06/26 08:50:41;;;;;;;1.67;1.43;;;19.80;74.90;;;;;;5073175;28;20502;-66
2022/06/26 08:53:15;;;;;;;1.17;1.10;;;19.70;78.60;;;;;;5079018;28;20471;-66
2022/06/26 08:55:46;;;;;;;1.30;1.20;;;19.70;76.60;;;;;;5072183;28;20489;-65
2022/06/26 08:58:19;;;;;;;1.00;1.00;;;19.70;78.00;;;;;;5080817;28;20490;-66
2022/06/26 09:00:49;;;;;;;3.27;1.40;;;19.60;80.50;;;;;;5081437;28;20438;-66
2022/06/26 09:03:20;;;;;;;1.37;1.27;;;19.60;80.20;;;;;;5080992;28;20434;-65
2022/06/26 09:05:51;;;;;;;1.50;1.40;;;19.50;79.00;;;;;;5070608;28;20542;-65
2022/06/26 09:08:26;;;;;;;1.03;1.00;;;19.40;81.20;;;;;;5081502;28;20938;-65
2022/06/26 09:10:58;;;;;;;1.27;1.00;;;19.40;82.50;;;;;;5080790;28;20434;-65
2022/06/26 09:13:40;;;;;;;1.60;1.50;;;19.40;83.60;;;;;;5080448;28;20495;-65
2022/06/26 09:16:12;;;;;;;1.37;1.23;;;19.30;84.00;;;;;;5080963;28;20478;-64
2022/06/26 09:18:44;;;;;;;1.10;0.97;;;19.20;84.90;;;;;;5081038;28;20429;-64
2022/06/26 09:21:15;;;;;;;1.43;1.30;;;19.20;85.10;;;;;;5080861;28;20500;-67
2022/06/26 09:23:55;;;;;;;1.23;1.13;;;19.20;86.70;;;;;;5080573;28;20497;-64
2022/06/26 09:26:25;;;;;;;1.57;1.47;;;19.10;88.20;;;;;;5076958;28;20468;-64
2022/06/26 09:29:08;;;;;;;1.57;1.30;;;19.00;87.60;;;;;;5080012;28;20463;-64
2022/06/26 09:31:40;;;;;;;1.97;1.53;;;19.00;87.40;;;;;;5080399;28;20446;-65
2022/06/26 09:34:24;;;;;;;1.13;0.97;;;18.90;87.40;;;;;;5081587;28;20450;-65
2022/06/26 09:36:59;;;;;;;1.57;1.47;;;18.90;89.20;;;;;;5080551;28;20444;-64
2022/06/26 09:39:32;;;;;;;5.77;1.30;;;18.90;90.90;;;;;;5080997;28;20485;-65
2022/06/26 09:42:17;;;;;;;1.40;1.30;;;18.90;91.50;;;;;;5080175;28;20467;-65
2022/06/26 09:44:50;;;;;;;1.07;1.03;;;18.80;91.30;;;;;;5080322;28;20855;-64
2022/06/26 09:47:24;;;;;;;1.03;1.00;;;18.80;92.70;;;;;;5076212;28;20437;-65
2022/06/26 09:49:58;;;;;;;1.60;1.50;;;18.70;92.90;;;;;;5079310;28;20429;-64
2022/06/26 09:52:31;;;;;;;1.60;1.50;;;18.70;93.10;;;;;;5081174;28;20443;-65
2022/06/26 09:55:08;;;;;;;1.23;1.10;;;18.60;93.90;;;;;;5081094;28;20490;-65
2022/06/26 09:57:39;;;;;;;1.20;1.10;;;18.60;93.00;;;;;;5081019;28;20451;-65
2022/06/26 10:00:13;;;;;;;1.77;1.47;;;18.50;94.70;;;;;;5079972;28;20448;-64
2022/06/26 10:08:31;;;;;;;2.00;1.43;;;18.40;95.70;;;;;;5069795;28;20531;-65
2022/06/26 10:11:04;;;;;;;1.83;1.50;;;18.30;96.30;;;;;;5080482;28;20456;-65
2022/06/26 10:13:36;;;;;;;1.70;1.60;;;18.30;97.60;;;;;;5079383;28;20486;-65
2022/06/26 10:16:24;;;;;;;1.67;1.30;;;18.30;97.50;;;;;;5080405;28;20434;-65
2022/06/26 10:19:15;;;;;;;1.97;1.43;;;18.30;97.90;;;;;;5080180;28;20458;-64
2022/06/26 10:21:48;;;;;;;1.30;1.20;;;18.20;98.40;;;;;;5084029;28;21118;-64
2022/06/26 10:24:19;;;;;;;1.93;1.50;;;18.10;97.70;;;;;;5081695;28;20478;-65
2022/06/26 10:26:54;;;;;;;0.97;0.97;;;18.10;98.70;;;;;;5084510;28;20473;-65
2022/06/26 10:29:36;;;;;;;1.20;1.10;;;17.90;99.60;;;;;;5084266;28;20937;-65
2022/06/26 10:32:09;;;;;;;0.90;0.90;;;17.90;99.40;;;;;;5082519;28;20533;-65
2022/06/26 10:34:40;;;;;;;1.23;1.13;;;17.90;99.40;;;;;;5083972;28;20491;-65
2022/06/26 10:37:13;;;;;;;1.20;1.10;;;17.90;99.90;;;;;;5080943;28;20451;-64
2022/06/26 10:39:49;;;;;;;1.73;1.20;;;17.80;98.40;;;;;;5084626;28;20545;-64
2022/06/26 10:45:12;;;;;;;1.27;1.17;;;17.80;99.90;;;;;;5080785;28;20455;-67
2022/06/26 10:47:50;;;;;;;1.20;1.00;;;17.80;99.90;;;;;;5083130;28;20467;-64
2022/06/26 10:50:28;;;;;;;1.50;1.40;;;17.80;99.90;;;;;;5082453;28;20446;-65
2022/06/26 10:53:23;;;;;;;1.63;1.40;;;17.80;99.90;;;;;;5083713;28;20463;-67
2022/06/26 10:55:55;;;;;;;1.27;1.17;;;17.80;99.90;;;;;;5083825;28;20465;-64
2022/06/26 10:58:28;;;;;;;1.30;1.30;;;17.70;99.90;;;;;;5083187;28;20465;-64
2022/06/26 11:01:02;;;;;;;1.30;1.20;;;17.70;99.90;;;;;;5082659;28;20445;-65
2022/06/26 11:03:35;;;;;;;2.23;1.47;;;17.70;99.90;;;;;;5083096;28;20538;-64
2022/06/26 11:06:07;;;;;;;2.13;1.70;;;17.60;99.90;;;;;;5082775;28;20479;-66
2022/06/26 11:08:40;;;;;;;1.20;1.10;;;17.50;99.90;;;;;;5084239;28;20444;-66
2022/06/26 11:11:14;;;;;;;1.53;1.40;;;17.60;99.90;;;;;;5083879;28;20426;-66
2022/06/26 11:13:52;;;;;;;1.57;1.40;;;17.50;99.90;;;;;;5083076;28;20496;-67
2022/06/26 11:16:31;;;;;;;1.43;1.33;;;17.50;99.90;;;;;;5083156;28;20470;-66
2022/06/26 11:19:06;;;;;;;1.60;1.17;;;17.40;99.90;;;;;;5082707;28;20463;-65
2022/06/26 11:21:37;;;;;;;1.10;1.00;;;17.40;99.90;;;;;;5079507;28;20468;-67
2022/06/26 11:24:15;;;;;;;1.00;1.00;;;17.40;99.90;;;;;;5081845;28;20472;-64
2022/06/26 11:26:54;;;;;;;0.93;0.93;;;17.40;99.90;;;;;;5076768;28;20442;-64
2022/06/26 11:29:26;;;;;;;1.27;1.17;;;17.40;99.90;;;;;;5076511;28;20515;-65
2022/06/26 11:31:58;;;;;;;1.13;1.03;;;17.30;99.90;;;;;;5082930;28;20470;-64
2022/06/26 11:34:31;;;;;;;1.43;1.33;;;17.30;99.90;;;;;;5081905;28;20466;-64
2022/06/26 11:37:03;;;;;;;4.93;1.80;;;17.30;99.90;;;;;;5080651;28;20462;-66
2022/06/26 11:39:40;;;;;;;1.43;1.27;;;17.30;99.90;;;;;;5081932;28;20434;-66
2022/06/26 11:42:18;;;;;;;3.00;1.40;;;17.30;99.90;;;;;;5081972;28;20467;-65
2022/06/26 11:44:50;;;;;;;1.37;1.27;;;17.30;99.90;;;;;;5083298;28;20422;-66
2022/06/26 11:47:21;;;;;;;1.37;1.23;;;17.20;99.90;;;;;;5083228;28;20597;-65
2022/06/26 11:49:54;;;;;;;1.33;1.23;;;17.20;99.90;;;;;;5083079;28;20442;-65
2022/06/26 11:52:25;;;;;;;1.53;1.37;;;17.20;99.90;;;;;;5081380;28;20434;-65
2022/06/26 11:55:00;;;;;;;3.90;1.30;;;17.10;99.90;;;;;;5081224;28;20993;-66
2022/06/26 11:57:39;;;;;;;1.50;1.40;;;17.20;99.90;;;;;;5083056;28;20479;-65
2022/06/26 12:00:12;;;;;;;2.13;1.63;;;17.20;99.90;;;;;;5082547;28;20454;-66
2022/06/26 12:02:45;;;;;;;1.90;1.30;;;17.20;99.90;;;;;;5072106;28;20444;-65
2022/06/26 12:05:22;;;;;;;1.50;1.40;;;17.20;99.90;;;;;;5081060;28;20681;-65
2022/06/26 12:07:54;;;;;;;1.13;1.13;;;17.10;99.90;;;;;;5082838;28;20466;-65
2022/06/26 12:10:30;;;;;;;1.33;1.23;;;17.10;99.90;;;;;;5074823;28;20431;-65
2022/06/26 12:13:02;;;;;;;1.30;1.20;;;17.10;99.90;;;;;;5083514;28;20886;-66
2022/06/26 12:15:34;;;;;;;1.40;1.30;;;17.10;99.90;;;;;;5082616;28;20483;-65
2022/06/26 12:18:06;;;;;;;1.20;1.10;;;17.10;99.90;;;;;;5083192;28;20459;-65
2022/06/26 12:20:41;;;;;;;1.60;1.50;;;17.10;99.40;;;;;;5082578;28;20455;-65
2022/06/26 12:23:13;;;;;;;1.83;1.53;;;17.10;99.80;;;;;;5082720;28;20493;-65
2022/06/26 12:25:45;;;;;;;1.27;1.17;;;17.10;99.90;;;;;;5082440;28;20422;-65
2022/06/26 12:28:23;;;;;;;1.40;1.30;;;17.10;99.80;;;;;;5082622;28;20430;-65
2022/06/26 12:30:54;;;;;;;2.43;1.60;;;17.10;99.90;;;;;;5082562;28;20499;-65
2022/06/26 12:33:25;;;;;;;1.40;1.30;;;17.10;98.70;;;;;;5083020;28;20498;-65
2022/06/26 12:35:57;;;;;;;1.10;1.10;;;17.10;98.50;;;;;;5081599;28;20465;-65
2022/06/26 12:38:28;;;;;;;1.33;1.30;;;17.20;98.50;;;;;;5082782;28;20486;-65
2022/06/26 12:40:59;;;;;;;1.20;1.10;;;17.20;99.90;;;;;;5082219;28;20423;-66
2022/06/26 12:43:30;;;;;;;2.10;1.50;;;17.20;99.20;;;;;;5081703;28;20451;-65
2022/06/26 12:46:01;;;;;;;1.87;1.67;;;17.20;99.20;;;;;;5080871;28;20960;-65
2022/06/26 12:48:31;;;;;;;1.33;1.23;;;17.20;99.90;;;;;;5082991;28;20435;-65
2022/06/26 12:51:04;;;;;;;1.60;1.50;;;17.20;99.40;;;;;;5081927;28;20557;-65
2022/06/26 12:53:35;;;;;;;1.50;1.40;;;17.30;99.60;;;;;;5082347;28;20501;-65
2022/06/26 12:56:06;;;;;;;1.10;1.10;;;17.30;98.50;;;;;;5081524;28;20526;-65
2022/06/26 12:58:37;;;;;;;1.53;1.43;;;17.30;99.50;;;;;;5081759;28;20451;-66
2022/06/26 13:01:08;;;;;;;1.77;1.67;;;17.30;99.20;;;;;;5081855;28;20438;-65
2022/06/26 13:03:39;;;;;;;1.43;1.33;;;17.30;99.80;;;;;;5082681;28;20415;-66
2022/06/26 13:06:11;;;;;;;1.70;1.60;;;17.30;99.90;;;;;;5080923;28;20444;-64
2022/06/26 13:08:42;;;;;;;1.53;1.43;;;17.30;99.90;;;;;;5082138;28;20430;-64
2022/06/26 13:11:26;;;;;;;1.70;1.60;;;17.30;99.90;;;;;;5081882;28;20467;-65
2022/06/26 13:13:57;;;;;;;1.23;1.13;;;17.40;99.90;;;;;;5082061;28;20458;-65
2022/06/26 13:16:37;;;;;;;1.50;1.40;;;17.50;99.60;;;;;;5081388;28;20459;-64
2022/06/26 13:19:08;;;;;;;1.60;1.50;;;17.60;99.70;;;;;;5082020;28;20455;-65
2022/06/26 13:21:41;;;;;;;2.00;1.63;;;17.70;99.80;;;;;;5081508;28;20497;-64
2022/06/26 13:24:13;;;;;;;1.40;1.30;;;17.70;99.90;;;;;;5081966;28;20942;-64
2022/06/26 13:26:43;;;;;;;1.80;1.70;;;17.70;99.90;;;;;;5081513;28;20440;-64